createdAt,value
2023-04-22T00:00:45.556Z,96823.56
2023-04-22T00:03:12.184Z,96824.19
2023-04-22T00:05:38.829Z,96831.69
2023-04-22T00:08:05.391Z,96835.13
2023-04-22T00:10:31.889Z,96838.88
2023-04-22T00:12:58.358Z,96847.00
2023-04-22T00:15:25.579Z,96848.56
2023-04-22T00:17:52.098Z,96850.09
2023-04-22T00:20:21.894Z,96846.22
2023-04-22T00:22:48.400Z,96848.38
2023-04-22T00:25:15.225Z,96845.41
2023-04-22T00:27:41.706Z,96840.72
2023-04-22T00:30:08.360Z,96848.81
2023-04-22T00:32:35.049Z,96844.91
2023-04-22T00:35:01.515Z,96854.09
2023-04-22T00:37:28.428Z,96850.00
2023-04-22T00:39:54.845Z,96853.72
2023-04-22T00:42:21.728Z,96851.06
2023-04-22T00:44:48.579Z,96852.00
2023-04-22T00:47:15.944Z,96850.59
2023-04-22T00:49:42.371Z,96851.06
2023-04-22T00:52:08.804Z,96858.06
2023-04-22T00:54:36.005Z,96857.00
2023-04-22T00:57:03.938Z,96860.56
2023-04-22T00:59:30.467Z,96865.81
2023-04-22T01:01:56.965Z,96866.38
2023-04-22T01:04:23.451Z,96868.63
2023-04-22T01:06:51.575Z,96869.28
2023-04-22T01:09:19.316Z,96867.25
2023-04-22T01:11:46.394Z,96867.69
2023-04-22T01:14:12.958Z,96863.66
2023-04-22T01:16:41.170Z,96866.94
2023-04-22T01:19:08.342Z,96864.69
2023-04-22T01:21:35.612Z,96867.97
2023-04-22T01:24:02.245Z,96864.53
2023-04-22T01:26:29.034Z,96867.59
2023-04-22T01:28:55.902Z,96864.16
2023-04-22T01:31:22.614Z,96859.75
2023-04-22T01:33:49.627Z,96856.00
2023-04-22T01:36:16.959Z,96863.47
2023-04-22T01:38:43.409Z,96865.31
2023-04-22T01:41:10.032Z,96862.75
2023-04-22T01:43:36.736Z,96862.06
2023-04-22T01:46:04.722Z,96871.97
2023-04-22T01:48:31.222Z,96862.75
2023-04-22T01:50:57.713Z,96862.22
2023-04-22T01:53:24.668Z,96867.16
2023-04-22T01:55:51.104Z,96874.66
2023-04-22T01:58:17.497Z,96860.78
2023-04-22T02:00:44.326Z,96868.66
2023-04-22T02:03:11.063Z,96873.94
2023-04-22T02:05:38.221Z,96872.63
2023-04-22T02:08:04.989Z,96874.78
2023-04-22T02:10:31.573Z,96871.06
2023-04-22T02:12:58.090Z,96874.81
2023-04-22T02:15:24.631Z,96874.78
2023-04-22T02:17:51.137Z,96868.25
2023-04-22T02:20:17.668Z,96875.09
2023-04-22T02:22:44.163Z,96872.75
2023-04-22T02:25:14.028Z,96878.47
2023-04-22T02:27:40.632Z,96872.09
2023-04-22T02:30:07.488Z,96875.34
2023-04-22T02:32:35.793Z,96874.44
2023-04-22T02:35:03.064Z,96880.16
2023-04-22T02:37:29.564Z,96881.72
2023-04-22T02:39:55.971Z,96883.09
2023-04-22T02:42:22.409Z,96881.31
2023-04-22T02:44:48.823Z,96884.91
2023-04-22T02:47:15.284Z,96887.81
2023-04-22T02:49:41.987Z,96886.94
2023-04-22T02:52:08.736Z,96886.28
2023-04-22T02:54:35.226Z,96896.25
2023-04-22T02:57:01.764Z,96887.19
2023-04-22T02:59:28.202Z,96892.22
2023-04-22T03:01:54.688Z,96891.31
2023-04-22T03:04:22.131Z,96894.44
2023-04-22T03:06:49.115Z,96903.81
2023-04-22T03:09:15.557Z,96885.69
2023-04-22T03:11:41.961Z,96897.31
2023-04-22T03:14:08.357Z,96894.31
2023-04-22T03:16:34.818Z,96905.69
2023-04-22T03:19:01.252Z,96895.06
2023-04-22T03:21:28.558Z,96904.56
2023-04-22T03:23:55.095Z,96903.97
2023-04-22T03:26:21.944Z,96898.13
2023-04-22T03:28:48.355Z,96901.13
2023-04-22T03:31:14.761Z,96903.41
2023-04-22T03:33:41.168Z,96910.00
2023-04-22T03:36:08.056Z,96906.34
2023-04-22T03:38:34.500Z,96913.28
2023-04-22T03:41:00.907Z,96909.56
2023-04-22T03:43:27.403Z,96915.06
2023-04-22T03:45:53.895Z,96905.75
2023-04-22T03:48:20.306Z,96914.69
2023-04-22T03:50:46.703Z,96920.94
2023-04-22T03:53:13.230Z,96923.41
2023-04-22T03:55:39.710Z,96919.69
2023-04-22T03:58:06.250Z,96923.16
2023-04-22T04:00:32.733Z,96934.66
2023-04-22T04:02:59.678Z,96935.59
2023-04-22T04:05:26.303Z,96939.94
2023-04-22T04:07:52.783Z,96941.53
2023-04-22T04:10:19.211Z,96940.28
2023-04-22T04:12:45.745Z,96953.50
2023-04-22T04:15:12.167Z,96947.13
2023-04-22T04:17:38.690Z,96953.88
2023-04-22T04:20:05.559Z,96950.72
2023-04-22T04:22:31.993Z,96959.72
2023-04-22T04:24:58.449Z,96963.16
2023-04-22T04:27:24.899Z,96959.72
2023-04-22T04:29:52.665Z,96963.41
2023-04-22T04:32:19.104Z,96961.03
2023-04-22T04:34:45.513Z,96970.41
2023-04-22T04:37:12.727Z,96967.78
2023-04-22T04:39:39.580Z,96969.44
2023-04-22T04:42:06.336Z,96961.13
2023-04-22T04:44:33.791Z,96957.63
2023-04-22T04:47:00.344Z,96960.69
2023-04-22T04:49:26.925Z,96966.56
2023-04-22T04:51:53.363Z,96965.19
2023-04-22T04:54:19.837Z,96973.84
2023-04-22T04:56:46.496Z,96972.03
2023-04-22T04:59:12.952Z,96978.75
2023-04-22T05:01:39.552Z,96979.38
2023-04-22T05:04:06.657Z,96975.06
2023-04-22T05:06:33.787Z,96981.78
2023-04-22T05:09:00.358Z,96984.41
2023-04-22T05:11:26.842Z,96979.44
2023-04-22T05:13:53.313Z,96977.59
2023-04-22T05:16:19.992Z,96979.81
2023-04-22T05:18:46.412Z,96980.47
2023-04-22T05:21:12.827Z,96978.94
2023-04-22T05:23:39.606Z,96973.31
2023-04-22T05:26:06.074Z,96980.81
2023-04-22T05:28:32.534Z,96972.69
2023-04-22T05:30:58.994Z,96973.53
2023-04-22T05:33:25.390Z,96967.13
2023-04-22T05:35:52.456Z,96972.50
2023-04-22T05:38:18.944Z,96982.22
2023-04-22T05:40:45.453Z,96978.91
2023-04-22T05:43:11.919Z,96986.13
2023-04-22T05:45:38.423Z,96980.06
2023-04-22T05:48:04.988Z,96977.41
2023-04-22T05:50:31.560Z,96978.06
2023-04-22T05:52:57.974Z,96973.69
2023-04-22T05:55:24.441Z,96972.41
2023-04-22T05:57:51.584Z,96974.22
2023-04-22T06:00:18.628Z,96977.19
2023-04-22T06:02:45.360Z,96973.63
2023-04-22T06:05:12.028Z,96969.66
2023-04-22T06:07:38.587Z,96969.53
2023-04-22T06:10:05.722Z,96975.84
2023-04-22T06:12:33.587Z,96969.91
2023-04-22T06:14:59.984Z,96982.31
2023-04-22T06:17:26.596Z,96972.44
2023-04-22T06:19:53.101Z,96977.81
2023-04-22T06:22:21.376Z,96975.19
2023-04-22T06:24:48.396Z,96963.09
2023-04-22T06:27:14.929Z,96959.47
2023-04-22T06:29:41.576Z,96954.31
2023-04-22T06:32:08.097Z,96948.47
2023-04-22T06:34:34.685Z,96950.91
2023-04-22T06:37:01.121Z,96943.16
2023-04-22T06:39:27.623Z,96944.56
2023-04-22T06:41:54.222Z,96944.28
2023-04-22T06:44:20.753Z,96942.09
2023-04-22T06:46:47.301Z,96935.16
2023-04-22T06:49:13.781Z,96934.25
2023-04-22T06:51:40.313Z,96941.56
2023-04-22T06:54:06.892Z,96943.97
2023-04-22T06:56:33.370Z,96939.81
2023-04-22T06:58:59.871Z,96922.81
2023-04-22T07:01:26.357Z,96921.19
2023-04-22T07:03:52.862Z,96930.44
2023-04-22T07:06:19.384Z,96930.50
2023-04-22T07:08:45.783Z,96924.03
2023-04-22T07:11:14.269Z,96925.53
2023-04-22T07:13:41.299Z,96922.13
2023-04-22T07:16:07.927Z,96923.97
2023-04-22T07:18:36.012Z,96919.69
2023-04-22T07:21:02.654Z,96920.75
2023-04-22T07:23:29.195Z,96922.00
2023-04-22T07:25:55.781Z,96913.69
2023-04-22T07:28:22.253Z,96919.38
2023-04-22T07:30:48.800Z,96911.34
2023-04-22T07:33:15.243Z,96918.31
2023-04-22T07:46:41.336Z,96922.47
2023-04-22T07:49:08.010Z,96913.41
2023-04-22T07:51:34.556Z,96908.34
2023-04-22T07:54:01.099Z,96902.91
2023-04-22T07:56:27.752Z,96908.59
2023-04-22T07:58:54.337Z,96899.56
2023-04-22T08:01:20.928Z,96905.69
2023-04-22T08:03:47.904Z,96903.97
2023-04-22T08:06:14.673Z,96899.28
2023-04-22T08:08:41.228Z,96891.13
2023-04-22T08:11:08.040Z,96882.81
2023-04-22T08:13:34.771Z,96888.75
2023-04-22T08:16:04.601Z,96868.94
2023-04-22T08:18:31.195Z,96863.41
2023-04-22T08:20:57.738Z,96848.91
2023-04-22T08:23:25.069Z,96858.63
2023-04-22T08:25:52.112Z,96862.97
2023-04-22T08:28:18.696Z,96850.84
2023-04-22T08:30:45.273Z,96850.63
2023-04-22T08:33:12.188Z,96847.56
2023-04-22T08:35:38.872Z,96853.22
2023-04-22T08:38:05.449Z,96844.94
2023-04-22T08:40:32.019Z,96843.66
2023-04-22T08:42:58.710Z,96845.56
2023-04-22T08:45:25.341Z,96823.22
2023-04-22T08:47:53.715Z,96858.47
2023-04-22T08:50:22.510Z,96861.16
2023-04-22T08:52:49.249Z,96866.47
2023-04-22T08:55:15.848Z,96862.47
2023-04-22T08:57:43.042Z,96868.34
2023-04-22T09:00:10.044Z,96864.47
2023-04-22T09:02:37.577Z,96865.94
2023-04-22T09:05:06.552Z,96863.00
2023-04-22T09:07:33.316Z,96847.28
2023-04-22T09:09:59.854Z,96841.69
2023-04-22T09:12:26.571Z,96839.78
2023-04-22T09:14:54.537Z,96835.34
2023-04-22T09:17:35.117Z,96834.00
2023-04-22T09:20:04.579Z,96831.53
2023-04-22T09:22:45.253Z,96832.75
2023-04-22T09:25:21.366Z,96842.47
2023-04-22T09:27:52.504Z,96833.00
2023-04-22T09:30:33.339Z,96821.22
2023-04-22T09:33:04.717Z,96823.44
2023-04-22T09:35:36.930Z,96809.13
2023-04-22T09:38:10.484Z,96806.47
2023-04-22T09:40:38.009Z,96808.78
2023-04-22T09:45:37.812Z,96794.03
2023-04-22T09:48:11.630Z,96794.34
2023-04-22T09:50:40.868Z,96788.94
2023-04-22T09:53:09.967Z,96776.28
2023-04-22T09:55:48.456Z,96779.47
2023-04-22T09:58:20.179Z,96774.44
2023-04-22T10:00:52.109Z,96768.88
2023-04-22T10:03:19.443Z,96746.34
2023-04-22T10:05:46.374Z,96752.06
2023-04-22T10:08:15.376Z,96762.38
2023-04-22T10:10:42.784Z,96753.06
2023-04-22T10:13:09.315Z,96748.53
2023-04-22T10:15:42.555Z,96741.97
2023-04-22T10:18:12.841Z,96715.81
2023-04-22T10:20:42.403Z,96708.56
2023-04-22T10:23:18.962Z,96728.06
2023-04-22T10:25:51.477Z,96716.41
2023-04-22T10:28:20.571Z,96716.47
2023-04-22T10:30:47.304Z,96724.06
2023-04-22T10:33:29.060Z,96720.25
2023-04-22T10:36:15.855Z,96703.16
2023-04-22T10:38:54.215Z,96705.91
2023-04-22T10:41:35.097Z,96701.38
2023-04-22T10:44:07.054Z,96704.13
2023-04-22T10:46:40.351Z,96707.63
2023-04-22T10:49:07.861Z,96699.72
2023-04-22T10:51:41.226Z,96706.31
2023-04-22T10:54:31.425Z,96702.00
2023-04-22T10:57:03.667Z,96706.66
2023-04-22T10:59:31.916Z,96734.16
2023-04-22T11:02:02.597Z,96722.75
2023-04-22T11:04:29.399Z,96724.28
2023-04-22T11:07:16.246Z,96726.69
2023-04-22T11:09:46.820Z,96730.66
2023-04-22T11:12:35.831Z,96725.16
2023-04-22T11:15:23.039Z,96730.66
2023-04-22T11:17:54.315Z,96730.19
2023-04-22T11:20:21.285Z,96729.28
2023-04-22T11:22:50.907Z,96719.78
2023-04-22T11:25:17.929Z,96728.72
2023-04-22T11:27:44.647Z,96734.75
2023-04-22T11:30:21.966Z,96745.41
2023-04-22T11:32:53.615Z,96747.28
2023-04-22T11:35:29.693Z,96755.31
2023-04-22T11:37:58.950Z,96754.47
2023-04-22T11:40:38.830Z,96752.53
2023-04-22T11:43:08.613Z,96763.41
2023-04-22T11:45:37.218Z,96768.78
2023-04-22T11:48:07.230Z,96771.19
2023-04-22T11:50:55.118Z,96766.09
2023-04-22T11:53:24.187Z,96768.28
2023-04-22T11:55:52.010Z,96763.16
2023-04-22T11:58:28.881Z,96765.00
2023-04-22T12:00:57.742Z,96761.41
2023-04-22T12:03:31.547Z,96733.59
2023-04-22T12:05:59.596Z,96752.44
2023-04-22T12:08:49.457Z,96751.34
2023-04-22T12:11:16.007Z,96745.66
2023-04-22T12:13:45.632Z,96739.69
2023-04-22T12:16:14.200Z,96740.69
2023-04-22T12:18:52.078Z,96742.47
2023-04-22T12:21:24.798Z,96737.56
2023-04-22T12:23:59.794Z,96731.28
2023-04-22T12:26:27.945Z,96730.34
2023-04-22T12:28:56.725Z,96737.41
2023-04-22T12:31:23.874Z,96717.13
2023-04-22T12:33:50.805Z,96733.56
2023-04-22T12:36:20.829Z,96738.00
2023-04-22T12:38:47.881Z,96735.69
2023-04-22T12:41:15.851Z,96731.22
2023-04-22T12:43:42.462Z,96735.09
2023-04-22T12:46:09.578Z,96736.34
2023-04-22T12:48:39.505Z,96727.81
2023-04-22T12:51:06.943Z,96733.06
2023-04-22T12:53:34.067Z,96735.56
2023-04-22T12:56:00.870Z,96712.41
2023-04-22T12:58:27.677Z,96711.63
2023-04-22T13:00:54.357Z,96713.47
2023-04-22T13:03:21.039Z,96715.03
2023-04-22T13:05:47.874Z,96712.97
2023-04-22T13:08:14.745Z,96719.34
2023-04-22T13:10:41.314Z,96711.34
2023-04-22T13:15:38.973Z,96717.13
2023-04-22T13:18:06.182Z,96707.72
2023-04-22T13:20:32.953Z,96707.09
2023-04-22T13:22:59.473Z,96705.06
2023-04-22T13:25:26.058Z,96698.03
2023-04-22T13:27:52.659Z,96688.47
2023-04-22T13:30:20.092Z,96685.28
2023-04-22T13:32:46.775Z,96686.69
2023-04-22T13:35:13.460Z,96685.91
2023-04-22T13:37:40.048Z,96682.47
2023-04-22T13:40:08.356Z,96677.47
2023-04-22T13:42:35.039Z,96681.03
2023-04-22T13:45:01.595Z,96691.19
2023-04-22T13:47:28.219Z,96707.25
2023-04-22T13:49:54.745Z,96700.88
2023-04-22T13:52:21.844Z,96709.50
2023-04-22T13:54:48.414Z,96703.09
2023-04-22T13:57:15.090Z,96710.19
2023-04-22T13:59:42.264Z,96722.91
2023-04-22T14:02:09.426Z,96726.53
2023-04-22T14:04:36.238Z,96730.56
2023-04-22T14:07:04.090Z,96737.91
2023-04-22T14:09:31.136Z,96738.47
2023-04-22T14:11:58.463Z,96729.53
2023-04-22T14:14:24.936Z,96745.63
2023-04-22T14:16:51.994Z,96740.91
2023-04-22T14:19:18.749Z,96736.53
2023-04-22T14:21:45.721Z,96741.06
2023-04-22T14:24:12.307Z,96738.38
2023-04-22T14:26:38.902Z,96746.69
2023-04-22T14:29:05.607Z,96735.09
2023-04-22T14:31:32.349Z,96749.81
2023-04-22T14:33:58.952Z,96757.28
2023-04-22T14:36:25.771Z,96769.94
2023-04-22T14:38:52.357Z,96763.78
2023-04-22T14:41:19.018Z,96772.06
2023-04-22T14:43:46.954Z,96774.09
2023-04-22T14:46:13.515Z,96783.34
2023-04-22T14:48:40.266Z,96788.06
2023-04-22T14:51:06.954Z,96786.06
2023-04-22T14:53:34.153Z,96791.34
2023-04-22T14:56:01.181Z,96800.84
2023-04-22T14:58:31.300Z,96792.94
2023-04-22T15:00:59.968Z,96809.53
2023-04-22T15:03:26.854Z,96804.41
2023-04-22T15:05:54.557Z,96802.31
2023-04-22T15:08:21.640Z,96806.00
2023-04-22T15:10:48.242Z,96807.81
2023-04-22T15:13:15.143Z,96815.78
2023-04-22T15:15:41.843Z,96818.16
2023-04-22T15:18:09.044Z,96805.75
2023-04-22T15:20:35.907Z,96820.72
2023-04-22T15:23:03.011Z,96818.44
2023-04-22T15:25:29.755Z,96814.03
2023-04-22T15:27:57.056Z,96806.75
2023-04-22T15:30:24.292Z,96819.13
2023-04-22T15:32:50.906Z,96815.03
2023-04-22T15:35:17.927Z,96804.72
2023-04-22T15:37:45.780Z,96807.50
2023-04-22T15:40:12.411Z,96812.38
2023-04-22T15:42:39.040Z,96815.69
2023-04-22T15:45:06.625Z,96806.66
2023-04-22T15:47:33.965Z,96807.72
2023-04-22T15:50:06.622Z,96799.66
2023-04-22T15:52:33.738Z,96807.94
2023-04-22T15:55:01.877Z,96782.84
2023-04-22T15:57:28.745Z,96782.06
2023-04-22T16:00:06.671Z,96804.88
2023-04-22T16:02:36.903Z,96791.25
2023-04-22T16:05:04.214Z,96809.03
2023-04-22T16:07:31.846Z,96801.81
2023-04-22T16:09:58.467Z,96807.00
2023-04-22T16:12:24.967Z,96809.03
2023-04-22T16:14:51.517Z,96809.53
2023-04-22T16:17:18.268Z,96808.78
2023-04-22T16:19:44.945Z,96802.63
2023-04-22T16:22:11.878Z,96810.16
2023-04-22T16:24:38.418Z,96807.84
2023-04-22T16:27:05.022Z,96809.63
2023-04-22T16:29:31.565Z,96821.25
2023-04-22T16:31:58.172Z,96820.22
2023-04-22T16:34:24.695Z,96824.09
2023-04-22T16:36:51.353Z,96827.47
2023-04-22T16:39:19.134Z,96828.50
2023-04-22T16:41:45.972Z,96842.97
2023-04-22T16:44:12.627Z,96840.41
2023-04-22T16:46:39.307Z,96840.13
2023-04-22T16:49:08.441Z,96836.53
2023-04-22T16:51:36.982Z,96853.31
2023-04-22T16:54:04.026Z,96865.19
2023-04-22T16:56:30.724Z,96866.72
2023-04-22T16:58:57.359Z,96881.44
2023-04-22T17:01:24.186Z,96885.03
2023-04-22T17:03:51.044Z,96881.13
2023-04-22T17:06:18.027Z,96889.34
2023-04-22T17:08:44.563Z,96902.59
2023-04-22T17:11:12.008Z,96902.78
2023-04-22T17:13:38.617Z,96892.59
2023-04-22T17:16:05.678Z,96910.59
2023-04-22T17:18:32.370Z,96922.50
2023-04-22T17:20:58.933Z,96925.19
2023-04-22T17:23:26.992Z,96938.16
2023-04-22T17:25:53.600Z,96946.38
2023-04-22T17:28:20.246Z,96960.91
2023-04-22T17:30:46.798Z,96969.56
2023-04-22T17:33:13.401Z,96962.78
2023-04-22T17:35:40.298Z,96958.38
2023-04-22T17:38:07.153Z,96965.84
2023-04-22T17:40:33.762Z,96972.16
2023-04-22T17:43:00.384Z,96971.28
2023-04-22T17:45:27.062Z,96980.06
2023-04-22T17:47:53.661Z,96997.91
2023-04-22T17:50:20.909Z,97000.72
2023-04-22T17:52:47.500Z,96990.75
2023-04-22T17:55:14.072Z,97000.47
2023-04-22T17:57:41.020Z,96991.59
2023-04-22T18:00:08.439Z,97003.75
2023-04-22T18:02:35.042Z,97012.97
2023-04-22T18:05:02.062Z,97010.94
2023-04-22T18:07:28.616Z,97023.31
2023-04-22T18:09:55.332Z,97023.00
2023-04-22T18:12:24.224Z,97027.41
2023-04-22T18:14:50.805Z,97028.44
2023-04-22T18:17:20.163Z,97028.50
2023-04-22T18:19:50.897Z,97041.66
2023-04-22T18:22:18.669Z,97045.75
2023-04-22T18:24:45.542Z,97036.13
2023-04-22T18:27:12.155Z,97053.44
2023-04-22T18:29:39.103Z,97037.38
2023-04-22T18:32:06.081Z,97058.53
2023-04-22T18:34:32.745Z,97058.13
2023-04-22T18:36:59.315Z,97043.50
2023-04-22T18:39:25.974Z,97065.34
2023-04-22T18:41:52.639Z,97062.81
2023-04-22T18:44:19.583Z,97077.31
2023-04-22T18:46:46.437Z,97076.81
2023-04-22T18:49:13.005Z,97084.63
2023-04-22T18:51:42.071Z,97087.94
2023-04-22T18:54:08.991Z,97088.25
2023-04-22T18:56:35.662Z,97083.47
2023-04-22T18:59:02.301Z,97075.94
2023-04-22T19:01:28.974Z,97077.47
2023-04-22T19:03:56.041Z,97087.16
2023-04-22T19:06:22.674Z,97100.19
2023-04-22T19:08:51.830Z,97105.63
2023-04-22T19:11:18.717Z,97105.63
2023-04-22T19:13:46.354Z,97107.59
2023-04-22T19:16:12.962Z,97099.78
2023-04-22T19:18:40.096Z,97104.84
2023-04-22T19:21:07.145Z,97094.13
2023-04-22T19:23:34.457Z,97099.28
2023-04-22T19:26:02.011Z,97113.44
2023-04-22T19:28:28.982Z,97113.91
2023-04-22T19:30:55.607Z,97118.75
2023-04-22T19:33:22.280Z,97124.25
2023-04-22T19:35:48.971Z,97124.44
2023-04-22T19:38:19.069Z,97112.56
2023-04-22T19:40:45.802Z,97110.25
2023-04-22T19:43:12.380Z,97122.47
2023-04-22T19:45:38.928Z,97116.53
2023-04-22T19:48:06.150Z,97118.28
2023-04-22T19:50:34.460Z,97121.56
2023-04-22T19:53:05.377Z,97126.03
2023-04-22T19:55:36.773Z,97115.09
2023-04-22T19:58:03.820Z,97113.72
2023-04-22T20:00:34.936Z,97115.97
2023-04-22T20:03:02.249Z,97114.31
2023-04-22T20:05:29.026Z,97112.75
2023-04-22T20:08:00.210Z,97115.28
2023-04-22T20:10:27.883Z,97116.25
2023-04-22T20:12:54.726Z,97115.66
2023-04-22T20:15:21.635Z,97117.53
2023-04-22T20:17:48.818Z,97117.53
2023-04-22T20:20:17.548Z,97118.81
2023-04-22T20:22:46.845Z,97121.50
2023-04-22T20:25:15.728Z,97117.47
2023-04-22T20:27:42.936Z,97113.31
2023-04-22T20:30:10.951Z,97114.88
2023-04-22T20:32:38.400Z,97108.00
2023-04-22T20:35:06.766Z,97119.25
2023-04-22T20:37:36.095Z,97116.44
2023-04-22T20:40:05.495Z,97119.72
2023-04-22T20:42:33.016Z,97115.81
2023-04-22T20:44:59.629Z,97121.44
2023-04-22T20:47:26.204Z,97126.00
2023-04-22T20:49:52.801Z,97128.38
2023-04-22T20:52:19.366Z,97124.75
2023-04-22T20:54:46.116Z,97135.84
2023-04-22T20:57:13.239Z,97128.03
2023-04-22T20:59:39.779Z,97125.53
2023-04-22T21:02:07.827Z,97134.13
2023-04-22T21:04:34.774Z,97139.59
2023-04-22T21:07:06.863Z,97128.66
2023-04-22T21:09:33.734Z,97138.19
2023-04-22T21:12:01.019Z,97134.13
2023-04-22T21:14:27.891Z,97124.28
2023-04-22T21:17:04.253Z,97105.19
2023-04-22T21:19:34.490Z,97125.84
2023-04-22T21:22:05.839Z,97124.88
2023-04-22T21:24:34.849Z,97124.25
2023-04-22T21:27:01.949Z,97111.06
2023-04-22T21:29:29.042Z,97131.84
2023-04-22T21:32:07.975Z,97121.69
2023-04-22T21:34:35.652Z,97132.63
2023-04-22T21:37:02.519Z,97135.25
2023-04-22T21:39:29.940Z,97136.41
2023-04-22T21:41:56.395Z,97134.66
2023-04-22T21:44:23.032Z,97133.56
2023-04-22T21:46:49.612Z,97142.63
2023-04-22T21:49:16.345Z,97135.69
2023-04-22T21:51:43.120Z,97142.38
2023-04-22T21:54:09.733Z,97141.53
2023-04-22T21:56:36.443Z,97147.25
2023-04-22T21:59:02.958Z,97149.34
2023-04-22T22:01:29.632Z,97148.81
2023-04-22T22:03:56.422Z,97142.94
2023-04-22T22:06:23.153Z,97147.00
2023-04-22T22:08:50.412Z,97146.53
2023-04-22T22:11:27.472Z,97147.00
2023-04-22T22:13:56.799Z,97152.63
2023-04-22T22:16:23.416Z,97150.81
2023-04-22T22:18:50.642Z,97156.16
2023-04-22T22:21:17.877Z,97156.66
2023-04-22T22:23:44.401Z,97150.69
2023-04-22T22:26:11.289Z,97158.13
2023-04-22T22:28:38.343Z,97155.88
2023-04-22T22:31:05.057Z,97156.22
2023-04-22T22:33:31.642Z,97156.22
2023-04-22T22:35:58.300Z,97154.13
2023-04-22T22:38:24.832Z,97147.63
2023-04-22T22:40:51.462Z,97147.31
2023-04-22T22:43:18.109Z,97145.09
2023-04-22T22:45:45.623Z,97144.00
2023-04-22T22:48:12.367Z,97155.00
2023-04-22T22:50:39.898Z,97153.00
2023-04-22T22:53:06.499Z,97146.75
2023-04-22T22:55:34.168Z,97153.44
2023-04-22T22:58:00.963Z,97149.63
2023-04-22T23:00:27.739Z,97137.56
2023-04-22T23:02:54.779Z,97153.56
2023-04-22T23:05:21.919Z,97149.72
2023-04-22T23:07:48.489Z,97132.25
2023-04-22T23:10:15.771Z,97151.59
2023-04-22T23:12:42.504Z,97150.16
2023-04-22T23:15:09.793Z,97145.00
2023-04-22T23:17:36.946Z,97142.56
2023-04-22T23:20:04.476Z,97161.72
2023-04-22T23:22:32.198Z,97152.84
2023-04-22T23:24:58.818Z,97156.56
2023-04-22T23:27:25.453Z,97149.16
2023-04-22T23:29:52.046Z,97149.75
2023-04-22T23:32:19.460Z,97154.69
2023-04-22T23:34:48.924Z,97142.91
2023-04-22T23:37:15.556Z,97144.16
2023-04-22T23:39:42.594Z,97144.16
2023-04-22T23:42:09.171Z,97148.44
2023-04-22T23:44:35.875Z,97149.53
2023-04-22T23:47:02.532Z,97148.34
2023-04-22T23:49:29.720Z,97154.38
2023-04-22T23:51:56.159Z,97153.03
2023-04-22T23:54:22.739Z,97151.25
2023-04-22T23:56:49.249Z,97146.22
2023-04-22T23:59:15.849Z,97156.63
